HKMO/MBA METAR and TAF weather

Enter ICAO airport designator
Station Type Date Time Source
HKMO METAR 2021/05/12 00:00 UTC NOAA

HKMO 120000Z 20004KT 9999 FEW020 24/21 Q1014 NOSIG


Station Type Date Time Source
HKMO Decoded METAR 2021/05/12 00:00 UTC NOAA

Mombasa, Kenya (HKMO) 04-02S 039-37E 55M
May 11, 2021 - 08:00 PM EDT / 2021.05.12 0000 UTC
Wind: from the SSW (200 degrees) at 5 MPH (4 KT):0
Visibility: greater than 7 mile(s):0
Sky conditions: mostly clear
Temperature: 75 F (24 C)
Dew Point: 69 F (21 C)
Relative Humidity: 83%
Pressure (altimeter): 29.94 in. Hg (1014 hPa)
ob: HKMO 120000Z 20004KT 9999 FEW020 24/21 Q1014 NOSIG
cycle: 0

Station Type Date Time Source
HKMO TAF 2021/05/11 18:27 UTC NOAA

TAF TAF HKMO 111700Z 1118/1224 17005KT 9999 FEW022
BECMG 1200/1203 23010KT FEW020
BECMG 1209/1212 FEW025CB SCT026

Example: see airport list